Time;durP1;ratioP1;P1;durP2;ratioP2;P2;SDS_P1;SDS_P2;PMS_P1;PMS_P2;Temp;Humidity;BMP_temperature;BMP_pressure;BME280_temperature;BME280_humidity;BME280_pressure;Samples;Min_cycle;Max_cycle;Signal;HPM_P1;HPM_P2
2022/03/27 00:02:18;;;;;;;31.83;23.92;;;9.60;78.80;;;;;;5000387;28;20038;-77
2022/03/27 00:04:44;;;;;;;31.58;23.33;;;9.60;79.00;;;;;;4991033;28;20033;-77
2022/03/27 00:07:10;;;;;;;31.75;23.60;;;9.60;79.10;;;;;;4998148;28;20087;-77
2022/03/27 00:09:35;;;;;;;30.10;23.38;;;9.60;79.20;;;;;;4993808;28;20277;-80
2022/03/27 00:12:02;;;;;;;29.35;22.83;;;9.50;79.20;;;;;;4988871;28;20034;-78
2022/03/27 00:14:28;;;;;;;28.83;22.13;;;9.50;79.30;;;;;;4998637;28;20035;-80
2022/03/27 00:16:54;;;;;;;30.10;21.83;;;9.40;79.30;;;;;;4999066;28;20709;-80
2022/03/27 00:19:20;;;;;;;33.70;22.55;;;9.40;79.40;;;;;;4991865;28;20077;-81
2022/03/27 00:21:46;;;;;;;30.00;22.48;;;9.40;79.30;;;;;;4992301;28;20544;-80
2022/03/27 00:24:12;;;;;;;31.40;23.08;;;9.40;79.40;;;;;;4994458;28;20037;-78
2022/03/27 00:26:39;;;;;;;26.15;20.40;;;9.40;79.20;;;;;;5000032;28;20044;-78
2022/03/27 00:29:05;;;;;;;30.45;22.38;;;9.30;79.30;;;;;;4999364;28;20048;-78
2022/03/27 00:31:35;;;;;;;29.40;21.73;;;9.30;79.50;;;;;;5017150;28;20041;-78
2022/03/27 00:34:02;;;;;;;26.80;21.35;;;9.20;79.60;;;;;;5016892;28;20038;-79
2022/03/27 00:36:28;;;;;;;30.90;22.40;;;9.20;79.80;;;;;;5026117;28;20057;-78
2022/03/27 00:38:54;;;;;;;30.75;22.35;;;9.10;80.10;;;;;;4997902;28;20107;-79
2022/03/27 00:41:23;;;;;;;31.77;22.88;;;9.20;80.10;;;;;;5001497;28;20037;-79
2022/03/27 00:43:49;;;;;;;29.73;22.30;;;9.10;80.20;;;;;;4993918;28;20050;-79
2022/03/27 00:46:15;;;;;;;28.52;21.98;;;9.10;80.20;;;;;;4995592;28;20026;-79
2022/03/27 00:48:40;;;;;;;30.48;22.52;;;9.10;80.20;;;;;;4991833;28;20045;-79
2022/03/27 00:51:06;;;;;;;29.70;23.25;;;9.00;80.50;;;;;;4997265;28;20034;-80
2022/03/27 00:53:32;;;;;;;28.67;21.75;;;9.00;80.70;;;;;;4989943;28;20133;-78
2022/03/27 00:55:58;;;;;;;28.73;22.20;;;9.00;80.70;;;;;;4993501;28;20038;-79
2022/03/27 00:58:24;;;;;;;30.58;22.88;;;8.90;80.90;;;;;;4988633;28;20151;-80
2022/03/27 01:01:24;;;;;;;27.65;21.90;;;8.90;81.10;;;;;;4997344;28;20030;-78
2022/03/27 01:03:54;;;;;;;29.13;22.65;;;8.80;81.30;;;;;;4985670;28;20062;-78
2022/03/27 01:06:33;;;;;;;31.17;23.23;;;8.80;81.50;;;;;;4983118;28;20092;-79
2022/03/27 01:11:45;;;;;;;29.05;21.80;;;8.80;82.10;;;;;;4984177;28;20112;-80
2022/03/27 01:14:11;;;;;;;29.80;22.35;;;8.80;82.30;;;;;;4995564;28;20089;-79
2022/03/27 01:16:43;;;;;;;27.42;22.27;;;8.80;82.20;;;;;;4976972;28;21208;-80
2022/03/27 01:19:15;;;;;;;34.75;22.35;;;8.80;82.40;;;;;;4970264;28;20049;-78
2022/03/27 01:21:44;;;;;;;29.38;22.73;;;8.70;82.80;;;;;;5005096;28;20040;-79
2022/03/27 01:24:11;;;;;;;29.42;22.08;;;8.60;82.80;;;;;;5001686;28;20030;-78
2022/03/27 01:26:38;;;;;;;27.83;22.23;;;8.70;82.60;;;;;;4979479;28;20079;-79
2022/03/27 01:29:05;;;;;;;27.88;21.33;;;8.60;82.60;;;;;;4988308;28;20072;-79
2022/03/27 01:31:32;;;;;;;29.10;22.58;;;8.60;82.70;;;;;;5002362;28;20096;-78
2022/03/27 01:33:58;;;;;;;31.58;21.48;;;8.60;82.80;;;;;;4985015;28;20033;-80
2022/03/27 01:36:34;;;;;;;28.90;21.02;;;8.50;82.90;;;;;;5000563;28;20045;-79
2022/03/27 01:39:01;;;;;;;30.30;23.13;;;8.50;83.00;;;;;;4996092;28;20269;-80
2022/03/27 01:41:26;;;;;;;31.70;20.88;;;8.50;83.40;;;;;;5002963;28;20052;-78
2022/03/27 01:43:52;;;;;;;31.88;21.95;;;8.50;83.60;;;;;;5005643;28;20034;-80
2022/03/27 01:46:19;;;;;;;29.08;22.25;;;8.40;83.90;;;;;;5002364;28;20590;-79
2022/03/27 01:48:46;;;;;;;32.15;22.77;;;8.40;83.90;;;;;;4999552;28;20050;-80
2022/03/27 01:51:12;;;;;;;29.60;21.88;;;8.30;84.00;;;;;;4999176;28;20045;-79
2022/03/27 01:53:39;;;;;;;31.30;21.75;;;8.30;84.10;;;;;;4986110;28;20042;-79
2022/03/27 01:56:07;;;;;;;31.15;21.77;;;8.30;84.30;;;;;;4998634;28;20046;-80
2022/03/27 01:58:37;;;;;;;30.77;21.67;;;8.20;84.50;;;;;;4994563;28;20092;-80
2022/03/27 02:01:03;;;;;;;30.10;21.80;;;8.20;84.80;;;;;;5004153;28;20203;-79
2022/03/27 02:03:29;;;;;;;28.67;21.23;;;8.10;84.90;;;;;;5000653;28;20088;-79
2022/03/27 02:05:55;;;;;;;28.90;21.00;;;8.10;85.00;;;;;;4984328;28;20125;-79
2022/03/27 02:08:24;;;;;;;30.77;21.73;;;8.10;85.10;;;;;;4996080;28;20214;-80
2022/03/27 02:10:50;;;;;;;26.02;19.98;;;8.10;85.30;;;;;;4992185;28;20086;-78
2022/03/27 02:13:22;;;;;;;26.13;20.83;;;8.10;85.50;;;;;;5004211;28;20033;-80
2022/03/27 02:15:51;;;;;;;28.10;21.52;;;8.10;85.50;;;;;;4992605;28;20514;-78
2022/03/27 02:18:17;;;;;;;26.80;19.98;;;8.10;85.80;;;;;;4982335;28;20030;-80
2022/03/27 02:20:44;;;;;;;30.92;21.92;;;8.10;85.70;;;;;;4992833;28;20049;-80
2022/03/27 02:23:11;;;;;;;29.45;20.30;;;8.10;85.70;;;;;;4986233;28;20038;-78
2022/03/27 02:25:38;;;;;;;28.98;21.15;;;8.00;85.80;;;;;;4997694;28;20524;-78
2022/03/27 02:28:04;;;;;;;28.17;20.60;;;8.00;86.20;;;;;;4998570;28;20045;-79
2022/03/27 02:30:30;;;;;;;29.42;20.92;;;8.00;86.40;;;;;;5002273;28;20124;-79
2022/03/27 02:32:56;;;;;;;28.63;20.60;;;8.00;86.30;;;;;;4990613;28;20560;-80
2022/03/27 02:35:22;;;;;;;29.42;19.40;;;8.00;86.50;;;;;;4999847;28;20820;-80
2022/03/27 02:37:48;;;;;;;33.15;20.83;;;7.90;86.80;;;;;;4999159;28;20128;-81
2022/03/27 02:40:14;;;;;;;29.23;19.90;;;7.90;86.60;;;;;;4997842;28;20135;-80
2022/03/27 02:42:40;;;;;;;28.67;20.90;;;7.90;86.60;;;;;;4990001;28;20602;-79
2022/03/27 02:45:06;;;;;;;30.77;21.17;;;7.90;86.70;;;;;;4996143;28;20037;-79
2022/03/27 02:47:33;;;;;;;28.55;20.00;;;7.90;86.90;;;;;;5010811;28;20055;-78
2022/03/27 02:49:59;;;;;;;27.00;20.63;;;7.90;86.90;;;;;;5005964;28;20064;-79
2022/03/27 02:52:25;;;;;;;29.95;21.17;;;7.80;86.90;;;;;;4994845;28;20050;-79
2022/03/27 02:54:51;;;;;;;30.80;20.23;;;7.80;87.00;;;;;;4994890;28;20390;-80
2022/03/27 02:57:16;;;;;;;30.15;20.50;;;7.80;87.30;;;;;;4981839;28;20231;-80
2022/03/27 02:59:43;;;;;;;29.27;19.95;;;7.80;87.20;;;;;;4994682;28;20045;-80
2022/03/27 03:02:08;;;;;;;27.92;20.90;;;7.80;87.30;;;;;;4992410;28;20973;-80
2022/03/27 03:04:34;;;;;;;28.80;19.85;;;7.80;87.30;;;;;;4998535;28;20042;-79
2022/03/27 03:07:00;;;;;;;27.23;19.33;;;7.80;87.30;;;;;;4999670;28;20076;-79
2022/03/27 03:09:26;;;;;;;27.65;19.60;;;7.80;87.30;;;;;;4996438;28;20076;-80
2022/03/27 03:11:52;;;;;;;27.95;20.55;;;7.80;87.20;;;;;;4991777;28;20108;-79
2022/03/27 03:14:17;;;;;;;26.98;20.30;;;7.70;87.30;;;;;;4997895;28;20038;-80
2022/03/27 03:16:49;;;;;;;27.73;20.38;;;7.70;87.20;;;;;;5001395;28;20037;-80
2022/03/27 03:19:15;;;;;;;24.85;19.25;;;7.60;87.30;;;;;;4992022;28;20041;-79
2022/03/27 03:21:41;;;;;;;28.58;20.63;;;7.60;87.50;;;;;;4998455;28;20060;-78
2022/03/27 03:24:09;;;;;;;27.58;20.08;;;7.60;87.50;;;;;;4992988;28;20485;-78
2022/03/27 03:26:34;;;;;;;29.55;19.98;;;7.60;87.50;;;;;;4974843;28;20454;-79
2022/03/27 03:29:00;;;;;;;28.42;21.23;;;7.60;87.50;;;;;;5008589;28;20581;-80
2022/03/27 03:31:26;;;;;;;25.80;19.00;;;7.60;87.60;;;;;;4977057;28;20041;-80
2022/03/27 03:33:51;;;;;;;27.58;20.13;;;7.50;87.60;;;;;;4998383;28;20045;-79
2022/03/27 03:36:17;;;;;;;23.77;18.95;;;7.40;87.60;;;;;;4998245;28;20211;-78
2022/03/27 03:38:43;;;;;;;27.67;19.42;;;7.40;87.80;;;;;;4986244;28;20030;-78
2022/03/27 03:41:08;;;;;;;29.60;21.58;;;7.40;87.90;;;;;;5000076;28;20478;-79
2022/03/27 03:43:37;;;;;;;28.63;19.70;;;7.40;88.00;;;;;;4995169;28;20030;-79
2022/03/27 03:46:03;;;;;;;25.98;19.67;;;7.40;88.20;;;;;;4975755;28;20450;-79
2022/03/27 03:48:29;;;;;;;28.65;20.52;;;7.30;88.20;;;;;;4992195;28;20097;-78
2022/03/27 03:50:55;;;;;;;26.52;21.45;;;7.30;88.50;;;;;;4993676;28;20077;-78
2022/03/27 03:53:21;;;;;;;30.08;21.48;;;7.30;88.50;;;;;;4996152;28;20054;-80
2022/03/27 03:55:47;;;;;;;28.13;21.35;;;7.30;88.70;;;;;;4995566;28;20034;-78
2022/03/27 03:58:13;;;;;;;29.92;22.65;;;7.30;89.10;;;;;;4997302;28;20065;-80
2022/03/27 04:00:39;;;;;;;29.90;22.73;;;7.30;89.10;;;;;;4997798;28;20548;-80
2022/03/27 04:03:05;;;;;;;31.35;21.92;;;7.40;89.30;;;;;;4981027;28;20053;-80
2022/03/27 04:05:31;;;;;;;29.88;22.00;;;7.30;89.20;;;;;;4980291;28;20034;-80
2022/03/27 04:07:57;;;;;;;31.08;22.95;;;7.40;89.20;;;;;;4997545;28;20072;-80
2022/03/27 04:10:23;;;;;;;27.65;22.60;;;7.30;89.30;;;;;;4991946;28;20562;-79
2022/03/27 04:12:48;;;;;;;30.48;22.75;;;7.30;89.30;;;;;;4992235;28;20030;-80
2022/03/27 04:15:14;;;;;;;32.95;22.58;;;7.30;89.30;;;;;;4991688;28;20076;-79
2022/03/27 04:17:44;;;;;;;34.88;23.92;;;7.30;89.40;;;;;;4991075;28;20046;-79
2022/03/27 04:20:10;;;;;;;35.55;25.45;;;7.30;89.70;;;;;;4997689;28;20038;-80
2022/03/27 04:22:36;;;;;;;36.08;24.63;;;7.30;89.90;;;;;;4997222;28;20040;-79
2022/03/27 04:25:02;;;;;;;36.03;25.15;;;7.30;90.20;;;;;;4997450;28;20038;-78
2022/03/27 04:27:28;;;;;;;35.42;25.02;;;7.30;90.20;;;;;;4988416;28;20065;-80
2022/03/27 04:29:53;;;;;;;40.42;26.83;;;7.30;90.30;;;;;;4996993;28;20062;-78
2022/03/27 04:32:19;;;;;;;38.72;27.02;;;7.20;90.50;;;;;;4990811;28;20050;-78
2022/03/27 04:34:45;;;;;;;39.10;26.75;;;7.30;90.70;;;;;;4985353;28;20052;-80
2022/03/27 04:37:10;;;;;;;51.35;29.30;;;7.30;90.60;;;;;;4992463;28;20853;-79
2022/03/27 04:39:36;;;;;;;53.58;31.50;;;7.20;90.80;;;;;;4992480;28;20048;-79
2022/03/27 04:42:02;;;;;;;81.65;35.97;;;7.30;91.00;;;;;;4987762;28;20611;-79
2022/03/27 04:44:27;;;;;;;102.63;37.03;;;7.20;91.10;;;;;;4987955;28;20053;-78
2022/03/27 04:46:54;;;;;;;72.68;36.08;;;7.20;91.20;;;;;;4980920;28;20663;-78
2022/03/27 04:49:20;;;;;;;84.07;37.03;;;7.20;91.40;;;;;;4997516;28;20184;-77
2022/03/27 04:51:45;;;;;;;100.80;40.50;;;7.20;91.70;;;;;;4996642;28;20066;-79
2022/03/27 04:54:11;;;;;;;150.88;43.42;;;7.10;91.90;;;;;;4990619;28;20145;-78
2022/03/27 04:56:37;;;;;;;108.95;42.47;;;7.10;92.30;;;;;;4995797;28;20037;-79
2022/03/27 04:59:03;;;;;;;120.22;44.08;;;7.10;92.50;;;;;;4995949;28;20037;-79
2022/03/27 05:01:28;;;;;;;211.18;50.38;;;7.00;92.70;;;;;;5001087;28;20049;-79
2022/03/27 05:03:54;;;;;;;187.23;52.45;;;7.10;92.90;;;;;;4988332;28;20035;-79
2022/03/27 05:06:20;;;;;;;170.40;49.58;;;7.10;93.10;;;;;;4995545;28;20034;-78
2022/03/27 05:08:45;;;;;;;202.43;52.05;;;7.10;93.30;;;;;;4995059;28;20389;-79
2022/03/27 05:11:12;;;;;;;194.82;54.40;;;7.10;93.30;;;;;;4990272;28;20045;-78
2022/03/27 05:13:38;;;;;;;226.30;58.15;;;7.10;93.50;;;;;;4978868;28;20085;-79
2022/03/27 05:16:04;;;;;;;201.75;60.67;;;7.20;93.60;;;;;;4974497;28;20824;-79
2022/03/27 05:18:29;;;;;;;227.57;62.65;;;7.20;93.70;;;;;;4993181;28;20042;-79
2022/03/27 05:20:55;;;;;;;181.30;63.80;;;7.30;93.90;;;;;;4999485;28;20161;-80
2022/03/27 05:23:21;;;;;;;227.25;66.70;;;7.40;93.90;;;;;;4994410;28;20049;-85
2022/03/27 05:25:49;;;;;;;201.68;63.33;;;7.40;94.00;;;;;;5001934;28;20046;-79
2022/03/27 05:28:14;;;;;;;185.38;66.20;;;7.50;94.10;;;;;;5003957;28;20038;-82
2022/03/27 05:30:41;;;;;;;179.15;64.90;;;7.50;94.20;;;;;;4998323;28;20096;-80
2022/03/27 05:33:07;;;;;;;264.02;69.07;;;7.60;94.30;;;;;;4980033;28;20041;-79
2022/03/27 05:35:33;;;;;;;221.07;68.70;;;7.60;94.30;;;;;;4996844;28;20042;-81
2022/03/27 05:37:59;;;;;;;293.95;73.65;;;7.60;94.40;;;;;;4991179;28;20035;-81
2022/03/27 05:40:25;;;;;;;215.05;68.07;;;7.70;94.50;;;;;;4995673;28;20096;-84
2022/03/27 05:42:51;;;;;;;224.05;69.45;;;7.70;94.50;;;;;;4983653;28;20496;-79
2022/03/27 05:45:18;;;;;;;247.00;67.95;;;7.80;94.50;;;;;;4999615;28;20113;-78
2022/03/27 05:47:45;;;;;;;238.77;66.03;;;7.80;94.60;;;;;;5009195;28;20041;-78
2022/03/27 05:50:13;;;;;;;249.23;68.97;;;7.80;94.60;;;;;;5011628;28;20121;-79
2022/03/27 05:52:39;;;;;;;241.73;69.43;;;7.90;94.70;;;;;;5012873;28;20120;-81
2022/03/27 05:55:05;;;;;;;214.88;69.95;;;7.90;94.70;;;;;;5005868;28;20097;-79
2022/03/27 05:57:31;;;;;;;247.10;69.50;;;7.90;94.70;;;;;;4999568;28;20033;-81
2022/03/27 05:59:57;;;;;;;214.20;67.85;;;8.00;94.70;;;;;;4989565;28;20061;-80
2022/03/27 06:02:22;;;;;;;226.50;70.43;;;8.00;94.80;;;;;;5006175;28;20089;-78
2022/03/27 06:04:48;;;;;;;261.55;74.43;;;8.10;94.80;;;;;;5007814;28;20139;-80
2022/03/27 06:07:14;;;;;;;223.75;71.88;;;8.10;94.80;;;;;;5022251;28;20589;-80
2022/03/27 06:09:40;;;;;;;226.90;68.00;;;8.10;94.90;;;;;;5010433;28;20035;-77
2022/03/27 06:12:06;;;;;;;220.65;71.10;;;8.10;94.90;;;;;;5019548;28;20024;-78
2022/03/27 06:14:32;;;;;;;217.48;68.40;;;8.10;94.90;;;;;;5011877;28;20018;-78
2022/03/27 06:16:58;;;;;;;215.35;68.85;;;8.10;95.00;;;;;;5027105;28;20037;-79
2022/03/27 06:19:24;;;;;;;213.75;66.68;;;8.20;95.00;;;;;;5031061;28;20024;-80
2022/03/27 06:21:49;;;;;;;191.35;67.43;;;8.20;95.10;;;;;;5010500;28;20030;-80
2022/03/27 06:24:16;;;;;;;204.48;68.28;;;8.30;95.10;;;;;;4998981;28;20042;-79
2022/03/27 06:26:42;;;;;;;203.18;67.07;;;8.30;95.10;;;;;;4977394;28;20345;-79
2022/03/27 06:29:09;;;;;;;200.38;64.05;;;8.40;95.10;;;;;;4983007;28;20053;-82
2022/03/27 06:31:35;;;;;;;207.38;67.38;;;8.40;95.10;;;;;;4998056;28;20041;-81
2022/03/27 06:34:01;;;;;;;197.20;66.20;;;8.40;95.10;;;;;;4991464;28;20026;-78
2022/03/27 06:36:27;;;;;;;188.07;64.55;;;8.40;95.00;;;;;;4985121;28;20045;-79
2022/03/27 06:38:52;;;;;;;205.90;69.68;;;8.50;95.10;;;;;;4987928;28;20392;-81
2022/03/27 06:41:18;;;;;;;197.68;65.63;;;8.50;95.10;;;;;;4995568;28;20121;-79
2022/03/27 06:43:44;;;;;;;187.48;66.95;;;8.50;95.10;;;;;;4987559;28;20042;-80
2022/03/27 06:46:15;;;;;;;183.73;62.75;;;8.60;95.10;;;;;;4993149;28;20026;-83
2022/03/27 06:48:40;;;;;;;177.80;63.55;;;8.60;95.00;;;;;;4977031;28;20046;-83
2022/03/27 06:51:06;;;;;;;169.15;62.80;;;8.60;95.00;;;;;;4993868;28;20781;-81
2022/03/27 06:53:32;;;;;;;161.18;58.90;;;8.70;95.00;;;;;;4993000;28;20045;-80
2022/03/27 06:55:57;;;;;;;163.35;60.90;;;8.70;94.90;;;;;;4989001;28;20064;-81
2022/03/27 06:58:23;;;;;;;171.10;62.17;;;8.70;94.90;;;;;;4994014;28;20413;-83
2022/03/27 07:03:33;;;;;;;163.50;60.75;;;8.80;94.90;;;;;;4990389;28;20521;-81
2022/03/27 07:05:58;;;;;;;163.25;63.35;;;8.80;94.70;;;;;;4977409;28;20038;-82
2022/03/27 07:08:24;;;;;;;149.88;62.65;;;8.80;94.80;;;;;;4995014;28;20599;-80
2022/03/27 07:10:50;;;;;;;148.10;62.53;;;8.80;94.70;;;;;;4980090;28;20177;-83
2022/03/27 07:13:18;;;;;;;161.43;65.53;;;8.90;94.70;;;;;;4991414;28;20045;-83
2022/03/27 07:15:45;;;;;;;157.23;63.83;;;8.90;94.60;;;;;;4987404;28;20173;-81
2022/03/27 07:18:11;;;;;;;152.40;66.07;;;9.00;94.50;;;;;;4977966;28;20030;-80
2022/03/27 07:20:41;;;;;;;157.07;64.43;;;9.00;94.40;;;;;;4997343;28;20035;-80
2022/03/27 07:23:11;;;;;;;147.68;64.55;;;9.00;94.30;;;;;;4994261;28;20081;-80
2022/03/27 07:25:39;;;;;;;158.98;63.63;;;8.90;94.20;;;;;;4998334;28;20093;-79
2022/03/27 07:28:07;;;;;;;157.65;64.55;;;8.90;94.00;;;;;;4987453;28;20045;-82
2022/03/27 07:30:34;;;;;;;152.93;65.18;;;8.90;94.10;;;;;;4983139;28;20046;-81
2022/03/27 07:33:00;;;;;;;163.50;67.25;;;9.10;94.10;;;;;;4994922;28;20133;-83
2022/03/27 07:35:26;;;;;;;167.50;67.18;;;9.10;94.00;;;;;;4993868;28;20121;-79
2022/03/27 07:37:53;;;;;;;160.65;70.30;;;9.20;93.90;;;;;;4983437;28;20054;-80
2022/03/27 07:40:20;;;;;;;166.55;70.45;;;9.20;93.90;;;;;;4991905;28;20759;-80
2022/03/27 07:42:49;;;;;;;167.88;69.32;;;9.20;93.60;;;;;;4975639;28;20069;-77
2022/03/27 07:45:18;;;;;;;165.45;69.63;;;9.30;93.70;;;;;;4984669;28;20128;-81
2022/03/27 07:47:44;;;;;;;163.05;68.60;;;9.30;93.60;;;;;;4976567;28;20522;-78
2022/03/27 07:50:11;;;;;;;175.68;71.63;;;9.30;93.60;;;;;;4985855;28;20854;-81
2022/03/27 07:52:38;;;;;;;159.73;67.85;;;9.50;93.60;;;;;;4999342;28;20045;-80
2022/03/27 07:55:05;;;;;;;165.38;67.05;;;9.50;93.40;;;;;;5004905;28;20032;-82
2022/03/27 07:57:31;;;;;;;159.45;67.20;;;9.50;93.30;;;;;;5001633;28;20635;-79
2022/03/27 07:59:56;;;;;;;139.80;61.97;;;9.60;93.40;;;;;;4975354;28;20105;-80
2022/03/27 08:02:22;;;;;;;143.90;61.10;;;9.60;93.10;;;;;;4987933;28;20046;-82
2022/03/27 08:04:48;;;;;;;141.30;61.25;;;9.60;92.90;;;;;;4991809;28;20035;-77
2022/03/27 08:07:14;;;;;;;132.93;60.05;;;9.60;92.70;;;;;;4991016;28;20073;-80
2022/03/27 08:09:41;;;;;;;133.02;59.92;;;9.60;92.80;;;;;;4971771;28;20640;-85
2022/03/27 08:12:08;;;;;;;136.93;59.08;;;9.40;92.70;;;;;;4986157;28;20097;-84
2022/03/27 08:14:37;;;;;;;127.43;57.92;;;9.50;92.80;;;;;;4993645;28;20038;-79
2022/03/27 08:17:04;;;;;;;131.25;58.67;;;9.50;92.80;;;;;;4994663;28;20434;-78
2022/03/27 08:19:30;;;;;;;125.00;56.22;;;9.50;92.70;;;;;;4974615;28;20050;-77
2022/03/27 08:21:55;;;;;;;122.05;55.70;;;9.70;92.80;;;;;;4975301;28;20034;-79
2022/03/27 08:24:22;;;;;;;124.38;57.80;;;9.60;92.30;;;;;;4982444;28;20035;-80
2022/03/27 08:26:59;;;;;;;127.50;56.53;;;9.60;92.30;;;;;;4995891;28;20507;-78
2022/03/27 08:29:27;;;;;;;126.10;55.47;;;9.70;92.40;;;;;;4978648;28;20037;-77
2022/03/27 08:31:53;;;;;;;112.13;54.00;;;9.80;92.30;;;;;;4992322;28;20037;-76
2022/03/27 08:34:20;;;;;;;119.03;54.65;;;10.00;92.20;;;;;;4991689;28;20038;-76
2022/03/27 08:36:47;;;;;;;130.30;56.38;;;10.10;91.80;;;;;;4991122;28;20053;-78
2022/03/27 08:39:13;;;;;;;119.43;55.97;;;10.20;91.70;;;;;;4982299;28;20041;-77
2022/03/27 08:41:48;;;;;;;128.55;58.72;;;10.10;91.10;;;;;;4995781;28;20034;-77
2022/03/27 08:44:15;;;;;;;132.82;58.20;;;10.20;90.80;;;;;;4985297;28;20113;-80
2022/03/27 08:46:42;;;;;;;125.68;56.40;;;10.10;90.50;;;;;;4992943;28;20077;-77
2022/03/27 08:49:27;;;;;;;124.47;55.35;;;10.00;90.90;;;;;;4991745;28;20078;-77
2022/03/27 08:52:01;;;;;;;135.52;58.33;;;10.10;91.00;;;;;;4986770;28;20501;-79
2022/03/27 08:54:36;;;;;;;141.93;59.88;;;10.10;91.10;;;;;;4984666;28;20034;-76
2022/03/27 08:57:32;;;;;;;134.93;57.97;;;10.10;91.10;;;;;;4990460;28;20038;-80
2022/03/27 09:00:00;;;;;;;120.25;56.45;;;10.00;91.30;;;;;;4957076;28;20169;-76
2022/03/27 09:02:25;;;;;;;114.85;52.95;;;10.00;91.00;;;;;;4990499;28;20055;-78
2022/03/27 09:04:56;;;;;;;124.03;56.22;;;10.00;91.00;;;;;;4994162;28;20041;-78
2022/03/27 09:07:28;;;;;;;132.05;57.63;;;9.90;91.00;;;;;;4986340;28;20038;-80
2022/03/27 09:09:54;;;;;;;123.45;56.10;;;10.00;91.20;;;;;;4995682;28;20070;-79
2022/03/27 09:12:21;;;;;;;114.93;51.38;;;10.00;91.20;;;;;;4990844;28;20061;-81
2022/03/27 09:14:48;;;;;;;124.43;55.97;;;10.10;91.10;;;;;;4985861;28;20032;-80
2022/03/27 09:17:15;;;;;;;115.22;51.92;;;10.10;91.20;;;;;;4995981;28;20048;-81
2022/03/27 09:19:46;;;;;;;114.43;52.88;;;10.10;91.20;;;;;;4975476;28;20034;-78
2022/03/27 09:22:14;;;;;;;125.72;54.28;;;10.30;91.10;;;;;;4990771;28;20343;-79
2022/03/27 09:24:41;;;;;;;117.45;52.55;;;10.30;90.70;;;;;;4993862;28;20117;-78
2022/03/27 09:27:07;;;;;;;112.72;52.55;;;10.40;90.90;;;;;;4989655;28;20492;-79
2022/03/27 09:29:57;;;;;;;114.65;52.38;;;10.40;90.60;;;;;;4988651;28;20502;-79
2022/03/27 09:32:31;;;;;;;113.65;51.08;;;10.30;90.40;;;;;;4986959;28;20034;-80
2022/03/27 09:35:08;;;;;;;108.40;50.30;;;10.40;90.10;;;;;;4997024;28;20432;-81
2022/03/27 09:37:40;;;;;;;105.82;50.80;;;10.30;90.10;;;;;;4996375;28;20107;-80
2022/03/27 09:40:08;;;;;;;100.60;48.45;;;10.40;90.00;;;;;;5000934;28;20061;-81
2022/03/27 09:42:36;;;;;;;107.80;49.38;;;10.30;89.60;;;;;;4998772;28;20037;-80
2022/03/27 09:45:23;;;;;;;103.18;47.72;;;10.40;89.60;;;;;;4992375;28;20096;-82
2022/03/27 09:47:50;;;;;;;105.07;49.75;;;10.40;89.60;;;;;;4986166;28;20882;-79
2022/03/27 09:50:35;;;;;;;86.90;44.50;;;10.40;90.00;;;;;;4991570;28;20088;-79
2022/03/27 09:53:36;;;;;;;84.78;42.95;;;10.60;89.60;;;;;;4994993;28;20047;-82
2022/03/27 09:56:01;;;;;;;88.13;45.15;;;10.60;89.20;;;;;;4953949;28;20545;-78
2022/03/27 09:58:39;;;;;;;77.97;40.97;;;10.90;89.30;;;;;;4983041;28;20563;-81
2022/03/27 10:01:09;;;;;;;81.28;43.20;;;11.00;88.20;;;;;;5005206;28;20049;-82
2022/03/27 10:03:36;;;;;;;78.60;41.72;;;11.10;87.60;;;;;;4992623;28;20070;-78
2022/03/27 10:06:03;;;;;;;72.00;40.58;;;11.10;87.50;;;;;;5000196;28;20052;-80
2022/03/27 10:08:29;;;;;;;67.63;38.47;;;11.20;87.90;;;;;;4981119;28;20109;-81
2022/03/27 10:10:58;;;;;;;72.97;39.45;;;11.20;87.10;;;;;;5000579;28;20046;-79
2022/03/27 10:13:31;;;;;;;77.88;39.42;;;11.00;87.50;;;;;;5001845;28;20092;-78
2022/03/27 10:15:59;;;;;;;69.22;38.85;;;11.10;88.20;;;;;;4999554;28;20045;-80
2022/03/27 10:18:27;;;;;;;61.58;36.83;;;11.30;87.80;;;;;;4981552;28;20033;-81
2022/03/27 10:20:58;;;;;;;62.47;37.88;;;11.60;87.80;;;;;;5006556;28;20034;-78
2022/03/27 10:23:26;;;;;;;62.65;35.83;;;11.90;86.50;;;;;;4997994;28;20054;-77
2022/03/27 10:26:01;;;;;;;59.38;37.28;;;11.60;85.10;;;;;;4997369;28;20050;-79
2022/03/27 10:28:28;;;;;;;56.90;34.85;;;11.80;85.50;;;;;;4977066;28;20038;-76
2022/03/27 10:30:54;;;;;;;63.55;37.40;;;11.90;85.80;;;;;;5000939;28;20112;-77
2022/03/27 10:33:24;;;;;;;52.08;33.75;;;12.00;84.80;;;;;;5001434;28;20085;-78
2022/03/27 10:35:55;;;;;;;50.60;33.03;;;12.40;85.60;;;;;;5001969;28;20096;-78
2022/03/27 10:38:58;;;;;;;54.90;33.35;;;12.50;82.80;;;;;;5008573;28;20115;-78
2022/03/27 10:41:43;;;;;;;50.10;32.10;;;12.80;82.80;;;;;;4979724;28;20038;-79
2022/03/27 10:44:18;;;;;;;44.30;28.98;;;13.00;82.20;;;;;;5003285;28;20042;-75
2022/03/27 10:46:46;;;;;;;;;;;12.70;80.80;;;;;;4993614;28;20133;-78
2022/03/27 10:49:16;;;;;;;44.72;29.33;;;12.10;82.70;;;;;;4991810;28;20304;-76
2022/03/27 10:51:43;;;;;;;46.60;30.17;;;12.10;83.00;;;;;;4993135;28;20069;-77
2022/03/27 10:54:20;;;;;;;50.85;31.13;;;12.10;83.00;;;;;;4995304;28;20453;-76
2022/03/27 10:56:54;;;;;;;49.92;29.27;;;11.80;84.60;;;;;;4995139;28;20052;-82
2022/03/27 10:59:20;;;;;;;42.60;28.90;;;11.70;84.50;;;;;;4991622;28;20120;-82
2022/03/27 11:01:58;;;;;;;46.78;28.65;;;11.80;84.90;;;;;;4980084;28;20048;-77
2022/03/27 11:04:41;;;;;;;47.70;29.20;;;12.10;84.70;;;;;;4972484;28;20038;-77
2022/03/27 11:07:15;;;;;;;42.25;26.15;;;12.30;83.80;;;;;;4989975;28;20442;-82
2022/03/27 11:09:44;;;;;;;;;;;12.20;82.40;;;;;;4995907;28;20050;-76
2022/03/27 11:12:25;;;;;;;46.55;29.35;;;12.00;83.70;;;;;;4988724;28;19917;-79
2022/03/27 11:15:01;;;;;;;43.90;27.40;;;12.30;84.80;;;;;;4980146;28;20421;-80
2022/03/27 11:17:37;;;;;;;42.10;26.17;;;12.40;83.20;;;;;;4994933;28;20041;-79
2022/03/27 11:20:05;;;;;;;44.33;28.88;;;12.30;83.30;;;;;;5000692;28;20332;-77
2022/03/27 11:22:53;;;;;;;42.53;27.65;;;12.60;83.30;;;;;;4986421;28;20096;-77
2022/03/27 11:25:34;;;;;;;44.00;27.77;;;13.00;82.20;;;;;;4995018;28;20034;-77
2022/03/27 11:28:13;;;;;;;43.60;26.98;;;13.40;81.00;;;;;;4995079;28;20061;-79
2022/03/27 11:30:47;;;;;;;40.22;26.10;;;13.60;79.60;;;;;;4990688;28;20046;-77
2022/03/27 11:33:14;;;;;;;37.60;25.58;;;13.80;78.60;;;;;;4994389;28;20117;-77
2022/03/27 11:35:43;;;;;;;45.63;29.23;;;13.80;77.40;;;;;;4989536;28;20038;-80
2022/03/27 11:38:23;;;;;;;45.95;29.88;;;13.10;80.50;;;;;;4992066;28;20611;-78
2022/03/27 11:40:49;;;;;;;44.72;29.42;;;13.20;80.00;;;;;;4990929;28;20492;-77
2022/03/27 11:43:29;;;;;;;44.72;29.95;;;13.10;80.30;;;;;;4981388;28;20374;-78
2022/03/27 11:45:57;;;;;;;44.92;29.13;;;13.00;80.10;;;;;;4989242;28;20156;-77
2022/03/27 11:48:23;;;;;;;46.25;31.23;;;13.00;80.40;;;;;;4992008;28;20031;-82
2022/03/27 11:50:49;;;;;;;47.75;30.40;;;12.80;80.80;;;;;;4985919;28;20038;-77
2022/03/27 11:53:16;;;;;;;52.17;30.95;;;13.10;81.80;;;;;;4990782;28;20398;-79
2022/03/27 11:55:41;;;;;;;48.65;30.58;;;13.10;81.60;;;;;;4986839;28;20646;-79
2022/03/27 11:58:08;;;;;;;44.58;29.13;;;12.90;80.50;;;;;;4985082;28;20038;-81
2022/03/27 12:00:40;;;;;;;47.08;30.25;;;12.80;81.40;;;;;;4995499;28;20088;-81
2022/03/27 12:03:20;;;;;;;47.90;30.85;;;13.20;80.90;;;;;;4994713;28;20549;-84
2022/03/27 12:05:47;;;;;;;50.30;32.35;;;13.70;78.90;;;;;;4981005;28;20218;-77
2022/03/27 12:08:17;;;;;;;47.45;31.13;;;13.70;77.80;;;;;;4985993;28;20034;-78
2022/03/27 12:10:57;;;;;;;52.47;32.90;;;13.60;79.00;;;;;;4988603;28;20054;-81
2022/03/27 12:13:23;;;;;;;48.75;30.58;;;13.80;77.90;;;;;;4970904;28;20306;-76
2022/03/27 12:15:51;;;;;;;47.20;32.13;;;14.00;77.90;;;;;;4980375;28;20163;-76
2022/03/27 12:18:32;;;;;;;52.03;32.25;;;14.10;77.00;;;;;;4985196;28;20049;-76
2022/03/27 12:21:04;;;;;;;55.10;32.28;;;14.20;76.50;;;;;;4990724;28;20068;-78
2022/03/27 12:23:33;;;;;;;55.95;33.70;;;14.40;76.30;;;;;;4987484;28;20066;-84
2022/03/27 12:31:53;;;;;;;54.38;31.90;;;13.60;78.50;;;;;;4987453;28;20057;-79
2022/03/27 12:34:20;;;;;;;55.65;33.70;;;13.90;79.10;;;;;;4976289;28;20532;-77
2022/03/27 12:37:09;;;;;;;51.72;31.02;;;13.80;77.40;;;;;;4994044;28;20334;-79
2022/03/27 12:39:35;;;;;;;64.57;35.38;;;13.60;77.40;;;;;;4986142;28;20061;-82
2022/03/27 12:42:01;;;;;;;57.40;33.90;;;14.10;77.90;;;;;;4965856;28;20390;-80
2022/03/27 12:44:46;;;;;;;57.50;33.78;;;14.30;75.70;;;;;;4986078;28;20038;-80
2022/03/27 12:47:12;;;;;;;54.10;32.67;;;14.70;75.60;;;;;;4983706;28;20645;-79
2022/03/27 12:49:50;;;;;;;43.63;30.08;;;15.10;73.80;;;;;;4990726;28;20152;-82